Time;durP1;ratioP1;P1;durP2;ratioP2;P2;SDS_P1;SDS_P2;PMS_P1;PMS_P2;Temp;Humidity;BMP_temperature;BMP_pressure;BME280_temperature;BME280_humidity;BME280_pressure;Samples;Min_cycle;Max_cycle;Signal;HPM_P1;HPM_P2
2022/04/28 00:01:14;;;;;;;;;;;;;;;19.42;45.67;100985.21;102722;1329;73969;-83
2022/04/28 00:04:04;;;;;;;;;;;;;;;19.42;45.67;100995.01;102687;1329;75708;-90
2022/04/28 00:07:13;;;;;;;;;;;;;;;19.42;45.74;101001.45;102737;1329;62814;-84
2022/04/28 00:13:01;;;;;;;;;;;;;;;19.42;45.73;101013.23;103145;1320;72902;-81
2022/04/28 00:15:48;;;;;;;;;;;;;;;19.42;45.76;101011.82;103821;1314;74019;-83
2022/04/28 00:18:32;;;;;;;;;;;;;;;19.42;45.61;101012.53;104158;1314;61415;-83
2022/04/28 00:21:20;;;;;;;;;;;;;;;19.42;45.71;101013.45;104263;1314;61184;-87
2022/04/28 00:24:06;;;;;;;;;;;;;;;19.42;45.70;101007.52;104263;1314;72741;-82
2022/04/28 00:27:12;;;;;;;;;;;;;;;19.42;45.69;101012.71;104208;1314;73690;-84
2022/04/28 00:30:00;;;;;;;;;;;;;;;19.41;45.68;101004.90;104280;1314;61166;-84
2022/04/28 00:32:48;;;;;;;;;;;;;;;19.42;45.78;101002.02;104324;1315;63090;-82
2022/04/28 00:35:34;;;;;;;;;;;;;;;19.41;45.73;100991.88;104235;1314;72826;-85
2022/04/28 00:38:39;;;;;;;;;;;;;;;19.41;45.71;100980.98;103833;1315;73558;-82
2022/04/28 00:41:28;;;;;;;;;;;;;;;19.42;45.73;100979.17;104268;1314;61587;-85
2022/04/28 00:44:35;;;;;;;;;;;;;;;;;;;;;
2022/04/28 00:51:07;;;;;;;;;;;;;;;;;;;;;
2022/04/28 00:54:09;;;;;;;;;;;;;;;19.41;45.85;100957.29;103361;1320;61354;-81
2022/04/28 00:57:10;;;;;;;;;;;;;;;19.40;45.99;100961.55;103024;1325;61248;-85
2022/04/28 00:59:59;;;;;;;;;;;;;;;19.41;46.10;100959.95;102783;1326;73005;-83
2022/04/28 01:03:13;;;;;;;;;;;;;;;19.41;46.05;100960.29;102492;1332;75899;-87
2022/04/28 01:05:58;;;;;;;;;;;;;;;19.41;46.12;100953.86;102448;1331;61179;-82
2022/04/28 01:08:43;;;;;;;;;;;;;;;19.41;46.09;100949.23;102456;1332;61255;-82
2022/04/28 01:11:40;;;;;;;;;;;;;;;19.41;46.12;100949.42;102511;1332;73321;-84
2022/04/28 01:14:38;;;;;;;;;;;;;;;19.40;46.18;100954.26;101910;1338;74724;-81
2022/04/28 01:17:12;;;;;;;;;;;;;;;19.41;46.17;100959.08;102337;1335;61253;-83
2022/04/28 01:20:18;;;;;;;;;;;;;;;19.40;46.17;100966.40;101940;1338;61240;-83
2022/04/28 01:23:15;;;;;;;;;;;;;;;19.41;46.20;100972.82;101752;1344;72806;-82
2022/04/28 01:26:00;;;;;;;;;;;;;;;;;;;;;
2022/04/28 01:28:43;;;;;;;;;;;;;;;19.41;46.21;100989.22;101933;1338;61793;-84
2022/04/28 01:31:32;;;;;;;;;;;;;;;19.40;46.19;100996.73;101931;1338;61422;-83
2022/04/28 01:34:23;;;;;;;;;;;;;;;19.40;46.24;101016.20;102216;1334;73979;-86
2022/04/28 01:37:10;;;;;;;;;;;;;;;19.40;46.23;101029.25;102443;1333;76301;-82
2022/04/28 01:40:11;;;;;;;;;;;;;;;;;;;;;
2022/04/28 01:43:23;;;;;;;;;;;;;;;;;;;;;
2022/04/28 01:46:12;;;;;;;;;;;;;;;19.40;46.28;101096.34;102352;1334;73759;-83
2022/04/28 01:48:58;;;;;;;;;;;;;;;19.40;46.25;101110.63;102450;1335;74645;-82
2022/04/28 01:58:19;;;;;;;;;;;;;;;19.40;46.37;101152.05;102262;1334;71654;-81
2022/04/28 02:04:03;;;;;;;;;;;;;;;19.40;46.38;101143.11;102526;1332;61359;-82
2022/04/28 02:06:51;;;;;;;;;;;;;;;19.40;46.38;101144.21;102566;1332;61252;-86
2022/04/28 02:09:36;;;;;;;;;;;;;;;19.39;46.49;101143.33;102620;1329;74073;-84
2022/04/28 02:12:29;;;;;;;;;;;;;;;;;;;;;
2022/04/28 02:15:26;;;;;;;;;;;;;;;19.39;46.41;101130.84;102573;1332;61598;-79
2022/04/28 02:18:12;;;;;;;;;;;;;;;19.39;46.42;101122.65;102480;1332;61352;-85
2022/04/28 02:20:46;;;;;;;;;;;;;;;19.39;46.49;101118.19;102483;1332;73904;-85
2022/04/28 02:24:07;;;;;;;;;;;;;;;19.39;46.43;101121.94;102389;1329;73755;-82
2022/04/28 02:26:47;;;;;;;;;;;;;;;19.39;46.48;101121.96;102597;1329;61344;-80
2022/04/28 02:29:42;;;;;;;;;;;;;;;19.39;46.58;101115.70;102956;1323;61149;-81
2022/04/28 02:33:08;;;;;;;;;;;;;;;19.39;46.51;101120.16;103081;1323;72853;-86
2022/04/28 02:35:43;;;;;;;;;;;;;;;19.39;46.58;101121.60;103393;1318;75024;-87
2022/04/28 02:38:38;;;;;;;;;;;;;;;;;;;;;
2022/04/28 02:41:32;;;;;;;;;;;;;;;19.38;46.43;101124.11;103849;1318;61171;-83
2022/04/28 02:44:27;;;;;;;;;;;;;;;19.39;46.63;101121.24;102740;1326;73931;-83
2022/04/28 02:47:13;;;;;;;;;;;;;;;19.39;46.60;101110.90;102738;1328;75926;-84
2022/04/28 02:50:05;;;;;;;;;;;;;;;19.39;46.65;101108.55;102769;1326;61288;-81
2022/04/28 02:52:50;;;;;;;;;;;;;;;19.39;46.66;101107.70;102767;1326;61332;-85
2022/04/28 02:55:45;;;;;;;;;;;;;;;19.38;46.62;101112.00;102993;1322;73929;-85
2022/04/28 02:58:30;;;;;;;;;;;;;;;19.38;46.72;101108.77;103230;1322;75451;-82
2022/04/28 03:01:34;;;;;;;;;;;;;;;19.38;46.73;101101.27;103516;1317;61424;-85
2022/04/28 03:04:27;;;;;;;;;;;;;;;;;;;;;
2022/04/28 03:13:35;;;;;;;;;;;;;;;19.37;46.81;101087.77;104175;1316;61162;-84
2022/04/28 03:16:11;;;;;;;;;;;;;;;19.38;46.77;101089.19;104114;1317;61510;-87
2022/04/28 03:19:10;;;;;;;;;;;;;;;;;;;;;
2022/04/28 03:21:53;;;;;;;;;;;;;;;;;;;;;
2022/04/28 03:25:09;;;;;;;;;;;;;;;19.37;46.76;101091.17;104750;1306;61254;-82
2022/04/28 03:28:12;;;;;;;;;;;;;;;19.37;46.85;101094.38;104643;1306;61527;-79
2022/04/28 03:30:59;;;;;;;;;;;;;;;19.37;46.75;101087.09;104711;1306;72732;-84
2022/04/28 03:33:48;;;;;;;;;;;;;;;19.37;46.93;101076.54;104728;1306;74874;-82
2022/04/28 03:39:40;;;;;;;;;;;;;;;19.37;47.08;101053.17;104627;1306;61287;-84
2022/04/28 03:42:47;;;;;;;;;;;;;;;19.36;46.91;101049.98;104625;1306;72893;-84
2022/04/28 03:45:26;;;;;;;;;;;;;;;;;;;;;
2022/04/28 03:48:21;;;;;;;;;;;;;;;19.37;47.06;101041.58;104188;1314;61432;-84
2022/04/28 03:51:07;;;;;;;;;;;;;;;;;;;;;
2022/04/28 03:54:00;;;;;;;;;;;;;;;;;;;;;
2022/04/28 03:56:42;;;;;;;;;;;;;;;19.36;47.16;101064.08;104243;1314;74092;-83
2022/04/28 03:59:20;;;;;;;;;;;;;;;19.36;47.04;101074.62;104280;1313;61459;-84
2022/04/28 04:01:59;;;;;;;;;;;;;;;19.37;47.01;101090.45;104228;1314;61438;-80
2022/04/28 04:04:53;;;;;;;;;;;;;;;19.37;46.89;101102.81;104151;1314;73949;-84
2022/04/28 04:07:55;;;;;;;;;;;;;;;19.36;46.92;101105.84;103258;1322;73669;-81
2022/04/28 04:10:59;;;;;;;;;;;;;;;19.37;46.87;101093.67;103383;1319;61266;-84
2022/04/28 04:13:46;;;;;;;;;;;;;;;19.37;46.88;101070.30;103248;1321;61682;-90
2022/04/28 04:16:11;;;;;;;;;;;;;;;19.37;46.91;101022.09;103134;1322;74434;-83
2022/04/28 04:19:04;;;;;;;;;;;;;;;19.37;46.94;100983.41;103129;1323;76324;-83
2022/04/28 04:22:24;;;;;;;;;;;;;;;19.36;46.92;100963.28;103328;1314;61403;-83
2022/04/28 04:25:20;;;;;;;;;;;;;;;19.36;46.93;100955.45;104302;1314;61468;-82
2022/04/28 04:28:17;;;;;;;;;;;;;;;19.35;46.88;100959.93;103370;1318;73295;-88
2022/04/28 04:34:15;;;;;;;;;;;;;;;19.35;47.02;100975.32;102735;1326;61806;-83
2022/04/28 04:37:15;;;;;;;;;;;;;;;19.34;47.00;100960.40;102776;1326;61244;-82
2022/04/28 04:40:11;;;;;;;;;;;;;;;19.33;46.95;100950.79;102778;1326;73863;-82
2022/04/28 04:42:56;;;;;;;;;;;;;;;19.33;47.03;100961.31;102685;1326;73976;-86
2022/04/28 04:45:31;;;;;;;;;;;;;;;19.33;47.07;100974.52;103135;1320;61440;-84
2022/04/28 04:48:46;;;;;;;;;;;;;;;19.34;47.06;100983.05;103087;1322;62062;-81
2022/04/28 04:51:34;;;;;;;;;;;;;;;;;;;;;
2022/04/28 04:54:16;;;;;;;;;;;;;;;19.34;47.05;101005.33;103094;1323;75924;-85
2022/04/28 04:56:52;;;;;;;;;;;;;;;19.34;47.11;101014.80;103021;1324;61524;-83
2022/04/28 04:59:43;;;;;;;;;;;;;;;19.34;47.13;101022.84;103104;1323;61604;-82
2022/04/28 05:02:29;;;;;;;;;;;;;;;19.35;47.19;101019.77;102820;1323;72762;-83
2022/04/28 05:05:21;;;;;;;;;;;;;;;19.34;47.06;101018.21;103419;1317;74990;-82
2022/04/28 05:08:10;;;;;;;;;;;;;;;19.34;47.22;101015.50;104065;1312;63060;-80
2022/04/28 05:10:57;;;;;;;;;;;;;;;19.34;47.18;101014.45;104452;1311;61474;-81
2022/04/28 05:13:42;;;;;;;;;;;;;;;19.34;47.24;101009.09;104297;1314;75045;-87
2022/04/28 05:16:15;;;;;;;;;;;;;;;19.33;47.28;101002.20;104469;1312;75823;-85
2022/04/28 05:19:21;;;;;;;;;;;;;;;;;;;;;
2022/04/28 05:22:07;;;;;;;;;;;;;;;19.31;47.30;100999.27;104769;1306;60336;-82
2022/04/28 05:25:06;;;;;;;;;;;;;;;19.31;47.35;101005.02;104733;1304;73937;-84
2022/04/28 05:27:48;;;;;;;;;;;;;;;19.30;47.36;101011.98;104718;1306;75921;-82
2022/04/28 05:30:54;;;;;;;;;;;;;;;19.30;47.28;101014.89;104626;1306;61148;-82
2022/04/28 05:33:42;;;;;;;;;;;;;;;19.31;47.14;101029.46;104258;1313;61204;-83
2022/04/28 05:36:24;;;;;;;;;;;;;;;;;;;;;
2022/04/28 05:39:08;;;;;;;;;;;;;;;19.30;47.11;101049.29;103397;1320;75656;-82
2022/04/28 05:42:15;;;;;;;;;;;;;;;19.30;47.17;101058.60;103271;1320;62002;-79
2022/04/28 05:47:55;;;;;;;;;;;;;;;;;;;;;
2022/04/28 05:50:51;;;;;;;;;;;;;;;19.30;47.22;101078.05;103252;1320;75910;-83
2022/04/28 05:53:16;;;;;;;;;;;;;;;19.30;47.29;101078.76;103375;1319;61262;-82
2022/04/28 05:56:25;;;;;;;;;;;;;;;19.30;47.22;101078.41;103273;1322;61648;-82
2022/04/28 05:59:01;;;;;;;;;;;;;;;19.30;47.22;101087.65;103352;1320;73650;-87
2022/04/28 06:01:50;;;;;;;;;;;;;;;19.29;47.23;101098.77;103380;1320;75015;-88
2022/04/28 06:04:28;;;;;;;;;;;;;;;19.30;47.18;101105.20;103583;1320;61317;-81
2022/04/28 06:07:15;;;;;;;;;;;;;;;19.30;47.35;101108.23;103651;1319;61300;-83
2022/04/28 06:10:01;;;;;;;;;;;;;;;19.29;47.16;101105.77;103206;1320;73963;-86
2022/04/28 06:12:51;;;;;;;;;;;;;;;19.30;47.12;101110.36;103586;1319;74697;-79
2022/04/28 06:15:37;;;;;;;;;;;;;;;19.29;47.43;101113.44;104304;1313;61301;-87
2022/04/28 06:18:33;;;;;;;;;;;;;;;19.29;47.43;101128.07;104327;1313;61588;-83
2022/04/28 06:21:35;;;;;;;;;;;;;;;19.30;47.47;101134.48;104334;1312;72687;-83
2022/04/28 06:24:11;;;;;;;;;;;;;;;;;;;;;
2022/04/28 06:26:55;;;;;;;;;;;;;;;19.30;47.54;101140.89;104161;1316;61500;-85
2022/04/28 06:29:49;;;;;;;;;;;;;;;19.29;47.56;101146.08;104233;1314;61182;-81
2022/04/28 06:32:52;;;;;;;;;;;;;;;19.29;47.48;101155.55;103740;1319;71652;-85
2022/04/28 06:35:33;;;;;;;;;;;;;;;;;;;;;
2022/04/28 06:38:36;;;;;;;;;;;;;;;19.29;47.62;101144.66;103574;1319;61767;-84
2022/04/28 06:41:35;;;;;;;;;;;;;;;;;;;;;
2022/04/28 06:44:03;;;;;;;;;;;;;;;19.29;47.49;101149.48;104241;1312;74202;-87
2022/04/28 06:47:23;;;;;;;;;;;;;;;19.29;47.74;101161.77;104283;1312;75832;-88
2022/04/28 06:50:27;;;;;;;;;;;;;;;;;;;;;
2022/04/28 06:53:13;;;;;;;;;;;;;;;19.29;47.68;101162.15;102827;1318;951851;-85
2022/04/28 06:56:09;;;;;;;;;;;;;;;19.29;47.70;101162.67;103820;1318;73798;-84
2022/04/28 06:58:44;;;;;;;;;;;;;;;19.29;47.65;101158.96;103643;1318;74892;-81
2022/04/28 07:01:35;;;;;;;;;;;;;;;19.29;47.49;101157.34;103881;1318;61189;-83
2022/04/28 07:04:10;;;;;;;;;;;;;;;19.30;47.64;101157.30;103594;1319;61539;-81
2022/04/28 07:07:05;;;;;;;;;;;;;;;19.29;47.64;101158.04;103852;1318;73300;-80
2022/04/28 07:09:51;;;;;;;;;;;;;;;19.29;47.48;101163.58;103904;1315;74804;-86
2022/04/28 07:13:01;;;;;;;;;;;;;;;;;;;;;
2022/04/28 07:15:51;;;;;;;;;;;;;;;19.30;47.61;101167.43;103298;1322;61345;-83
2022/04/28 07:19:06;;;;;;;;;;;;;;;19.31;47.63;101173.84;102754;1326;74574;-82
2022/04/28 07:21:55;;;;;;;;;;;;;;;19.31;47.66;101170.27;102939;1325;74900;-86
2022/04/28 07:24:52;;;;;;;;;;;;;;;19.30;47.47;101165.97;102637;1328;61178;-81
2022/04/28 07:27:58;;;;;;;;;;;;;;;19.31;47.73;101172.92;102116;1335;61482;-87
2022/04/28 07:30:45;;;;;;;;;;;;;;;19.32;47.63;101190.00;102301;1332;73803;-79
2022/04/28 07:33:30;;;;;;;;;;;;;;;19.33;47.63;101190.29;102262;1332;74681;-83
2022/04/28 07:36:16;;;;;;;;;;;;;;;19.33;47.68;101191.88;102477;1332;61665;-80
2022/04/28 07:39:02;;;;;;;;;;;;;;;19.34;47.71;101201.83;102529;1332;61565;-83
2022/04/28 07:42:16;;;;;;;;;;;;;;;19.35;47.67;101206.61;102451;1332;72841;-87
2022/04/28 07:44:25;;;;;;;;;;;;;;;19.35;47.74;101209.98;102462;1332;74808;-84
2022/04/28 07:47:36;;;;;;;;;;;;;;;19.35;47.71;101209.29;102510;1331;61923;-84
2022/04/28 07:50:10;;;;;;;;;;;;;;;19.35;47.80;101211.63;102324;1329;61445;-82
2022/04/28 07:52:57;;;;;;;;;;;;;;;19.35;47.95;101217.67;102614;1329;74127;-82
2022/04/28 07:59:27;;;;;;;;;;;;;;;;;;;;;
2022/04/28 08:02:12;;;;;;;;;;;;;;;19.31;48.25;101226.67;102729;1325;61494;-86
2022/04/28 08:04:40;;;;;;;;;;;;;;;19.29;48.26;101233.89;103038;1320;73708;-84
2022/04/28 08:07:38;;;;;;;;;;;;;;;19.27;48.30;101232.38;103390;1318;75834;-84
2022/04/28 08:10:14;;;;;;;;;;;;;;;19.26;48.35;101232.98;103450;1320;61178;-82
2022/04/28 08:13:00;;;;;;;;;;;;;;;19.24;48.36;101233.09;103481;1320;61231;-85
2022/04/28 08:15:58;;;;;;;;;;;;;;;;;;;;;
2022/04/28 08:18:52;;;;;;;;;;;;;;;19.22;48.52;101225.35;103420;1319;75932;-85
2022/04/28 08:21:37;;;;;;;;;;;;;;;19.22;48.76;101224.83;103579;1319;59828;-83
2022/04/28 08:24:17;;;;;;;;;;;;;;;19.21;48.68;101222.17;103154;1319;61529;-84
2022/04/28 08:27:26;;;;;;;;;;;;;;;;;;;;;
2022/04/28 08:30:01;;;;;;;;;;;;;;;19.20;48.68;101224.06;104280;1313;74850;-85
2022/04/28 08:32:51;;;;;;;;;;;;;;;19.19;48.61;101223.73;104248;1312;61136;-86
2022/04/28 08:35:57;;;;;;;;;;;;;;;19.18;48.53;101226.30;103542;1319;61307;-83
2022/04/28 08:38:50;;;;;;;;;;;;;;;19.19;48.72;101226.98;103661;1315;74290;-89
2022/04/28 08:41:49;;;;;;;;;;;;;;;19.18;48.70;101234.13;103367;1320;75732;-82
2022/04/28 08:44:53;;;;;;;;;;;;;;;19.18;48.71;101237.35;102925;1325;61373;-85
2022/04/28 08:47:38;;;;;;;;;;;;;;;19.18;48.70;101233.99;102926;1325;61356;-85
2022/04/28 08:50:32;;;;;;;;;;;;;;;19.18;48.80;101237.19;102905;1325;72786;-82
2022/04/28 08:53:15;;;;;;;;;;;;;;;19.16;48.79;101241.73;102896;1325;74841;-85
2022/04/28 08:56:04;;;;;;;;;;;;;;;19.16;48.73;101238.92;102751;1326;61507;-83
2022/04/28 08:59:10;;;;;;;;;;;;;;;19.15;48.89;101237.34;102849;1326;61176;-85
2022/04/28 09:01:54;;;;;;;;;;;;;;;19.14;48.82;101235.43;102540;1332;72818;-81
2022/04/28 09:04:40;;;;;;;;;;;;;;;19.13;48.94;101231.92;102534;1332;76104;-85
2022/04/28 09:07:33;;;;;;;;;;;;;;;;;;;;;
2022/04/28 09:10:26;;;;;;;;;;;;;;;19.11;49.17;101235.44;102535;1332;61221;-86
2022/04/28 09:16:20;;;;;;;;;;;;;;;;;;;;;
2022/04/28 09:19:26;;;;;;;;;;;;;;;19.09;49.21;101228.58;102859;1325;61304;-83
2022/04/28 09:22:12;;;;;;;;;;;;;;;;;;;;;
2022/04/28 09:24:50;;;;;;;;;;;;;;;19.11;49.10;101242.04;103466;1319;74862;-84
2022/04/28 09:27:36;;;;;;;;;;;;;;;19.11;49.01;101245.98;103352;1320;76179;-85
2022/04/28 09:30:24;;;;;;;;;;;;;;;19.11;49.02;101247.25;103141;1324;61584;-85
2022/04/28 09:33:04;;;;;;;;;;;;;;;19.11;49.02;101254.16;103087;1324;61289;-84
2022/04/28 09:35:35;;;;;;;;;;;;;;;19.11;49.02;101252.02;103137;1324;72952;-85
2022/04/28 09:38:34;;;;;;;;;;;;;;;19.11;48.89;101252.19;103060;1320;73586;-85
2022/04/28 09:44:50;;;;;;;;;;;;;;;19.12;48.95;101263.92;102855;1326;61486;-83
2022/04/28 09:47:34;;;;;;;;;;;;;;;19.13;48.92;101264.21;102781;1325;73042;-81
2022/04/28 09:50:20;;;;;;;;;;;;;;;19.15;48.91;101260.58;102824;1326;75821;-81
2022/04/28 09:53:06;;;;;;;;;;;;;;;19.15;48.81;101264.98;102951;1318;61392;-83
2022/04/28 09:55:52;;;;;;;;;;;;;;;19.17;48.88;101271.51;103852;1319;61279;-86
2022/04/28 09:58:34;;;;;;;;;;;;;;;19.18;48.98;101272.16;103093;1324;74036;-83
2022/04/28 10:01:22;;;;;;;;;;;;;;;19.19;48.81;101267.13;103147;1323;74887;-85
2022/04/28 10:04:11;;;;;;;;;;;;;;;19.20;48.66;101262.59;103078;1323;61185;-82
2022/04/28 10:06:52;;;;;;;;;;;;;;;19.21;48.75;101254.15;102786;1323;61282;-83
2022/04/28 10:09:58;;;;;;;;;;;;;;;19.22;48.71;101249.63;103368;1321;73937;-82
2022/04/28 10:12:52;;;;;;;;;;;;;;;19.22;48.92;101247.98;103379;1320;75423;-88
2022/04/28 10:15:32;;;;;;;;;;;;;;;19.23;48.79;101250.83;102767;1324;61511;-84
2022/04/28 10:18:06;;;;;;;;;;;;;;;19.24;48.82;101258.60;102804;1326;61488;-86
2022/04/28 10:21:00;;;;;;;;;;;;;;;;;;;;;
2022/04/28 10:33:14;;;;;;;;;;;;;;;19.27;48.84;101265.42;103530;1319;73150;-84
2022/04/28 10:36:05;;;;;;;;;;;;;;;19.27;49.06;101267.38;102978;1323;75003;-86
2022/04/28 10:39:30;;;;;;;;;;;;;;;19.28;48.97;101268.39;102781;1329;61150;-83
2022/04/28 10:41:59;;;;;;;;;;;;;;;19.28;49.01;101264.45;102542;1332;62283;-82
2022/04/28 10:45:00;;;;;;;;;;;;;;;19.29;48.95;101256.77;101815;1338;70561;-82
2022/04/28 10:47:43;;;;;;;;;;;;;;;19.29;49.07;101241.92;101841;1338;76115;-81
2022/04/28 10:50:35;;;;;;;;;;;;;;;19.29;49.15;101222.84;101901;1338;61526;-81
2022/04/28 10:53:21;;;;;;;;;;;;;;;19.29;49.17;101207.48;102236;1335;61702;-83
2022/04/28 10:56:36;;;;;;;;;;;;;;;19.30;49.11;101253.83;102032;1336;71231;-83
2022/04/28 10:59:22;;;;;;;;;;;;;;;19.30;49.12;101279.15;101813;1342;74805;-80
2022/04/28 11:02:35;;;;;;;;;;;;;;;;;;;;;
2022/04/28 11:05:13;;;;;;;;;;;;;;;19.30;49.17;101281.30;101830;1342;61648;-86
2022/04/28 11:08:16;;;;;;;;;;;;;;;19.31;49.19;101278.59;101957;1338;72894;-82
2022/04/28 11:11:11;;;;;;;;;;;;;;;19.31;49.13;101273.04;101928;1338;75384;-84
2022/04/28 11:13:57;;;;;;;;;;;;;;;19.31;49.18;101268.43;102065;1335;61489;-82
2022/04/28 11:16:42;;;;;;;;;;;;;;;19.31;49.18;101270.55;102503;1329;61527;-85
2022/04/28 11:19:15;;;;;;;;;;;;;;;19.31;49.25;101270.39;102665;1329;73245;-83
2022/04/28 11:22:20;;;;;;;;;;;;;;;19.31;49.26;101266.44;103001;1320;75840;-84
2022/04/28 11:25:16;;;;;;;;;;;;;;;19.30;49.27;101262.54;103273;1320;61218;-82
2022/04/28 11:27:59;;;;;;;;;;;;;;;19.30;49.14;101262.20;103344;1320;61976;-84
2022/04/28 11:30:41;;;;;;;;;;;;;;;19.31;49.30;101261.29;103350;1320;72635;-82
2022/04/28 11:33:20;;;;;;;;;;;;;;;19.31;49.44;101250.03;103586;1314;74801;-87
2022/04/28 11:36:09;;;;;;;;;;;;;;;19.30;49.38;101241.48;104319;1306;61800;-85
2022/04/28 11:39:12;;;;;;;;;;;;;;;19.30;49.37;101232.40;104585;1306;61297;-85
2022/04/28 11:45:00;;;;;;;;;;;;;;;19.30;49.19;101260.80;104320;1313;75554;-83
2022/04/28 11:48:04;;;;;;;;;;;;;;;19.30;49.49;101258.11;104359;1313;61318;-81
2022/04/28 11:50:44;;;;;;;;;;;;;;;19.30;49.20;101256.67;104302;1313;62310;-83
2022/04/28 11:54:08;;;;;;;;;;;;;;;19.31;49.41;101255.39;104339;1311;71520;-84
2022/04/28 11:56:44;;;;;;;;;;;;;;;;;;;;;
2022/04/28 11:59:47;;;;;;;;;;;;;;;19.31;49.54;101260.54;104299;1312;61774;-85
2022/04/28 12:02:46;;;;;;;;;;;;;;;19.31;49.49;101263.20;104311;1313;61017;-82
2022/04/28 12:05:43;;;;;;;;;;;;;;;;;;;;;
2022/04/28 12:08:57;;;;;;;;;;;;;;;;;;;;;
2022/04/28 12:14:56;;;;;;;;;;;;;;;;;;;;;
2022/04/28 12:20:43;;;;;;;;;;;;;;;19.34;49.59;101263.97;101948;1339;75303;-85
2022/04/28 12:26:39;;;;;;;;;;;;;;;19.34;49.50;101252.55;102374;1335;61350;-91
2022/04/28 12:29:29;;;;;;;;;;;;;;;19.34;49.55;101246.13;102303;1335;73280;-83
2022/04/28 12:32:21;;;;;;;;;;;;;;;;;;;;;
2022/04/28 12:35:21;;;;;;;;;;;;;;;19.34;49.56;101244.85;102528;1332;61179;-84
2022/04/28 12:38:19;;;;;;;;;;;;;;;;;;;;;
2022/04/28 12:40:48;;;;;;;;;;;;;;;19.35;49.58;101247.46;102518;1332;71846;-83
2022/04/28 12:43:56;;;;;;;;;;;;;;;19.35;49.60;101244.23;102131;1335;73605;-83
2022/04/28 12:46:55;;;;;;;;;;;;;;;;;;;;;
2022/04/28 12:49:44;;;;;;;;;;;;;;;19.35;49.62;101245.70;102108;1335;61240;-83
2022/04/28 12:52:47;;;;;;;;;;;;;;;19.35;49.59;101242.82;102312;1332;73965;-86
2022/04/28 12:56:05;;;;;;;;;;;;;;;19.35;49.63;101238.91;102423;1335;73661;-82
2022/04/28 12:58:38;;;;;;;;;;;;;;;19.35;49.74;101232.81;102427;1332;61447;-84
2022/04/28 13:01:36;;;;;;;;;;;;;;;19.35;49.66;101235.67;102417;1335;61621;-83
2022/04/28 13:04:25;;;;;;;;;;;;;;;19.35;49.75;101234.60;102415;1335;73941;-82
2022/04/28 13:07:19;;;;;;;;;;;;;;;19.36;49.68;101233.16;102346;1335;75879;-84
2022/04/28 13:10:08;;;;;;;;;;;;;;;19.35;49.67;101234.27;102474;1335;61332;-82
2022/04/28 13:12:57;;;;;;;;;;;;;;;19.35;49.77;101239.47;102103;1335;61317;-85
2022/04/28 13:15:46;;;;;;;;;;;;;;;19.35;49.70;101244.64;102019;1338;73898;-86
2022/04/28 13:18:40;;;;;;;;;;;;;;;19.34;49.66;101244.83;102021;1338;74901;-83
2022/04/28 13:21:24;;;;;;;;;;;;;;;19.35;49.77;101243.20;102319;1332;62225;-82
2022/04/28 13:24:31;;;;;;;;;;;;;;;19.35;49.72;101244.46;102526;1332;61713;-83
2022/04/28 13:26:59;;;;;;;;;;;;;;;19.34;49.80;101242.52;102402;1329;74493;-86
2022/04/28 13:29:47;;;;;;;;;;;;;;;19.35;49.74;101239.81;101942;1338;73481;-80
2022/04/28 13:32:54;;;;;;;;;;;;;;;19.35;49.80;101244.46;101900;1341;61697;-79
2022/04/28 13:35:50;;;;;;;;;;;;;;;19.35;49.80;101250.52;102017;1335;61464;-83
2022/04/28 13:38:32;;;;;;;;;;;;;;;19.35;49.76;101252.29;102264;1335;73749;-84
2022/04/28 13:41:12;;;;;;;;;;;;;;;19.35;49.79;101253.38;102355;1333;75681;-85
2022/04/28 13:44:01;;;;;;;;;;;;;;;19.35;49.82;101254.42;102365;1335;61233;-82
2022/04/28 13:47:06;;;;;;;;;;;;;;;;;;;;;
2022/04/28 13:49:48;;;;;;;;;;;;;;;19.36;49.78;101251.55;102313;1335;73936;-84
2022/04/28 13:52:36;;;;;;;;;;;;;;;19.35;49.74;101239.05;102416;1329;74770;-84
2022/04/28 13:55:21;;;;;;;;;;;;;;;19.35;49.82;101239.77;102549;1328;61312;-83
2022/04/28 13:57:58;;;;;;;;;;;;;;;19.36;49.76;101255.48;102572;1329;61259;-81
2022/04/28 14:00:49;;;;;;;;;;;;;;;19.36;49.76;101262.95;102585;1327;72985;-83
2022/04/28 14:03:27;;;;;;;;;;;;;;;19.36;49.76;101265.62;102648;1328;74644;-84
2022/04/28 14:06:04;;;;;;;;;;;;;;;19.36;49.79;101265.06;102555;1329;61269;-83
2022/04/28 14:09:03;;;;;;;;;;;;;;;19.36;49.79;101261.15;103279;1320;61221;-83
2022/04/28 14:11:55;;;;;;;;;;;;;;;;;;;;;
2022/04/28 14:14:30;;;;;;;;;;;;;;;19.37;49.76;101260.40;103932;1315;74846;-81
2022/04/28 14:17:06;;;;;;;;;;;;;;;19.37;49.80;101261.29;104013;1315;61467;-81
2022/04/28 14:19:41;;;;;;;;;;;;;;;19.37;49.74;101264.84;103652;1315;61254;-80
2022/04/28 14:22:12;;;;;;;;;;;;;;;19.37;49.57;101262.35;103874;1315;72844;-83
2022/04/28 14:24:50;;;;;;;;;;;;;;;19.37;49.71;101262.69;103770;1315;74755;-80
2022/04/28 14:27:24;;;;;;;;;;;;;;;19.37;49.72;101258.05;103950;1315;61138;-83
2022/04/28 14:29:50;;;;;;;;;;;;;;;19.37;49.64;101259.29;103765;1315;61291;-81
2022/04/28 14:32:24;;;;;;;;;;;;;;;19.38;49.67;101258.91;104012;1315;72830;-81
2022/04/28 14:35:17;;;;;;;;;;;;;;;19.38;49.79;101258.73;104157;1315;61313;-82
2022/04/28 14:37:53;;;;;;;;;;;;;;;19.38;49.68;101262.80;104214;1315;61246;-83
2022/04/28 14:40:53;;;;;;;;;;;;;;;19.39;49.59;101254.41;104223;1315;61977;-83
2022/04/28 14:43:37;;;;;;;;;;;;;;;19.38;49.73;101258.00;104257;1314;72886;-83
2022/04/28 14:46:33;;;;;;;;;;;;;;;19.38;49.61;101245.52;104222;1315;74803;-83
2022/04/28 14:52:35;;;;;;;;;;;;;;;;;;;;;
2022/04/28 14:55:41;;;;;;;;;;;;;;;19.37;49.66;101241.81;104207;1315;74185;-84
2022/04/28 14:58:25;;;;;;;;;;;;;;;19.37;49.79;101239.84;104227;1315;76958;-83
2022/04/28 15:00:59;;;;;;;;;;;;;;;19.38;49.65;101241.27;104232;1315;61793;-85
2022/04/28 15:03:48;;;;;;;;;;;;;;;19.37;49.85;101241.09;104222;1313;61246;-83
2022/04/28 15:06:34;;;;;;;;;;;;;;;19.37;49.65;101245.55;104457;1306;73798;-82
2022/04/28 15:09:26;;;;;;;;;;;;;;;19.37;49.59;101241.29;104680;1306;74775;-83
2022/04/28 15:11:59;;;;;;;;;;;;;;;19.37;49.61;101241.81;104726;1306;61396;-83
2022/04/28 15:14:48;;;;;;;;;;;;;;;19.36;49.73;101242.38;104717;1306;62015;-83
2022/04/28 15:17:31;;;;;;;;;;;;;;;19.36;49.58;101237.44;104194;1316;73714;-84
2022/04/28 15:20:26;;;;;;;;;;;;;;;19.36;49.68;101234.40;104051;1314;77535;-83
2022/04/28 15:23:05;;;;;;;;;;;;;;;19.36;49.70;101229.23;103998;1314;61324;-81
2022/04/28 15:25:42;;;;;;;;;;;;;;;19.35;49.65;101231.05;103137;1320;61714;-80
2022/04/28 15:28:26;;;;;;;;;;;;;;;;;;;;;
2022/04/28 15:31:06;;;;;;;;;;;;;;;;;;;;;
2022/04/28 15:33:51;;;;;;;;;;;;;;;19.36;49.90;101219.42;103275;1320;60289;-85
2022/04/28 15:36:40;;;;;;;;;;;;;;;19.35;49.76;101220.68;103258;1319;61336;-82
2022/04/28 15:39:19;;;;;;;;;;;;;;;19.35;49.89;101219.97;103225;1320;73308;-82
2022/04/28 15:41:57;;;;;;;;;;;;;;;19.35;49.93;101216.76;103158;1320;74936;-80
2022/04/28 15:44:46;;;;;;;;;;;;;;;19.35;49.94;101214.09;103269;1319;61213;-82
2022/04/28 15:47:49;;;;;;;;;;;;;;;19.35;50.03;101216.58;103322;1320;61204;-89
2022/04/28 15:50:46;;;;;;;;;;;;;;;19.35;50.00;101220.50;102716;1325;72742;-86
2022/04/28 15:54:00;;;;;;;;;;;;;;;19.35;50.04;101230.70;102748;1325;74629;-87
2022/04/28 15:56:24;;;;;;;;;;;;;;;19.35;50.08;101229.99;103258;1320;61084;-85
2022/04/28 15:59:17;;;;;;;;;;;;;;;19.35;50.03;101230.16;103351;1320;61497;-85
2022/04/28 16:02:15;;;;;;;;;;;;;;;;;;;;;
2022/04/28 16:04:54;;;;;;;;;;;;;;;;;;;;;
2022/04/28 16:07:34;;;;;;;;;;;;;;;19.35;50.10;101231.62;102943;1325;61844;-82
2022/04/28 16:10:31;;;;;;;;;;;;;;;;;;;;;
2022/04/28 16:13:37;;;;;;;;;;;;;;;19.35;50.21;101232.50;102937;1325;74296;-85
2022/04/28 16:16:23;;;;;;;;;;;;;;;;;;;;;
2022/04/28 16:19:21;;;;;;;;;;;;;;;19.35;50.42;101235.36;103726;1320;61402;-82
2022/04/28 16:22:09;;;;;;;;;;;;;;;19.35;50.17;101234.46;103284;1320;61625;-87
2022/04/28 16:25:02;;;;;;;;;;;;;;;19.34;50.24;101237.70;103518;1320;73808;-82
2022/04/28 16:27:40;;;;;;;;;;;;;;;19.34;50.08;101245.38;103968;1315;74788;-82
2022/04/28 16:30:26;;;;;;;;;;;;;;;19.35;50.21;101249.46;104350;1314;61320;-87